Terminal Aerodrome Forecast
Issued by NWS

Home | Current Version | Previous Version | Text Only | Print | Product List | Glossary On
Versions: 1 2 3 4 5 6 7 8 9 10 11 12 13 14 15 16 17 18 19 20 21 22 23 24 25 26 27 28 29 30 31
311
FTUS43 KSGF 200321 AAB
TAFBBG
TAF AMD
KBBG 200321Z 2003/2024 15004KT 1/4SM FG OVC002
     FM200800 VRB04KT 1/2SM FG OVC002
     FM201600 16008KT 4SM BR OVC003
     FM201800 17010KT P6SM OVC015
     FM202000 18010G18KT P6SM SCT250=

USA.gov is the U.S. government's official web portal to all federal, state and local government web resources and services.